createdAt,value
2018-06-17T00:02:29.139Z,67.57
2018-06-17T00:05:06.276Z,65.97
2018-06-17T00:07:36.814Z,65.50
2018-06-17T00:10:07.566Z,65.70
2018-06-17T00:12:37.839Z,62.90
2018-06-17T00:15:07.965Z,59.73
2018-06-17T00:17:38.310Z,60.93
2018-06-17T00:20:09.609Z,62.87
2018-06-17T00:22:40.113Z,60.50
2018-06-17T00:25:10.580Z,67.97
2018-06-17T00:27:40.845Z,65.07
2018-06-17T00:30:11.204Z,63.43
2018-06-17T00:32:41.899Z,64.73
2018-06-17T00:35:12.328Z,60.50
2018-06-17T00:37:42.626Z,64.40
2018-06-17T00:40:13.009Z,60.77
2018-06-17T00:42:43.169Z,60.50
2018-06-17T00:45:13.854Z,61.73
2018-06-17T00:47:44.144Z,63.63
2018-06-17T00:50:14.595Z,66.50
2018-06-17T00:52:44.700Z,62.33
2018-06-17T00:55:16.639Z,61.53
2018-06-17T00:57:52.848Z,59.53
2018-06-17T01:00:23.991Z,65.60
2018-06-17T01:02:54.215Z,62.73
2018-06-17T01:05:25.004Z,63.17
2018-06-17T01:07:55.226Z,60.43
2018-06-17T01:10:25.444Z,63.37
2018-06-17T01:12:55.783Z,62.83
2018-06-17T01:15:26.115Z,67.87
2018-06-17T01:17:57.058Z,60.93
2018-06-17T01:20:27.746Z,60.87
2018-06-17T01:22:57.729Z,63.20
2018-06-17T01:25:28.002Z,61.80
2018-06-17T01:27:58.173Z,60.83
2018-06-17T01:30:29.429Z,62.60
2018-06-17T01:32:59.721Z,62.37
2018-06-17T01:35:30.317Z,67.30
2018-06-17T01:38:00.963Z,61.83
2018-06-17T01:40:31.510Z,61.00
2018-06-17T01:43:01.958Z,62.77
2018-06-17T01:45:32.214Z,63.83
2018-06-17T01:48:02.481Z,59.30
2018-06-17T01:50:32.785Z,58.83
2018-06-17T01:53:02.843Z,60.33
2018-06-17T01:55:33.409Z,60.07
2018-06-17T01:58:04.288Z,60.83
2018-06-17T02:00:34.498Z,61.17
2018-06-17T02:03:10.829Z,62.63
2018-06-17T02:05:46.379Z,61.60
2018-06-17T02:08:21.552Z,61.53
2018-06-17T02:10:56.818Z,58.40
2018-06-17T02:13:27.351Z,62.37
2018-06-17T02:15:58.007Z,60.97
2018-06-17T02:18:28.084Z,60.03
2018-06-17T02:20:58.129Z,60.43
2018-06-17T02:23:28.647Z,59.33
2018-06-17T02:26:01.037Z,65.00
2018-06-17T02:28:31.281Z,62.10
2018-06-17T02:31:02.041Z,62.77
2018-06-17T02:33:32.227Z,60.93
2018-06-17T02:36:02.412Z,60.03
2018-06-17T02:38:32.713Z,60.93
2018-06-17T02:41:03.878Z,61.30
2018-06-17T02:43:34.732Z,59.77
2018-06-17T02:46:10.227Z,59.77
2018-06-17T02:48:45.470Z,60.67
2018-06-17T02:51:20.657Z,59.47
2018-06-17T02:53:56.174Z,59.63
2018-06-17T02:56:27.940Z,61.10
2018-06-17T02:59:01.021Z,59.20
2018-06-17T03:01:31.369Z,71.03
2018-06-17T03:04:01.868Z,61.27
2018-06-17T03:06:31.809Z,59.33
2018-06-17T03:09:02.450Z,60.37
2018-06-17T03:11:32.844Z,60.97
2018-06-17T03:14:03.453Z,61.70
2018-06-17T03:16:34.523Z,60.40
2018-06-17T03:19:04.808Z,66.20
2018-06-17T03:21:36.552Z,59.43
2018-06-17T03:24:07.660Z,61.60
2018-06-17T03:26:42.852Z,59.83
2018-06-17T03:29:18.755Z,62.10
2018-06-17T03:31:53.961Z,60.07
2018-06-17T03:34:24.873Z,59.17
2018-06-17T03:36:55.253Z,61.00
2018-06-17T03:39:25.707Z,61.30
2018-06-17T03:41:55.970Z,65.23
2018-06-17T03:44:26.117Z,61.70
2018-06-17T03:46:56.433Z,59.23
2018-06-17T03:49:26.662Z,58.07
2018-06-17T03:51:57.307Z,62.43
2018-06-17T03:54:27.681Z,63.20
2018-06-17T03:56:57.855Z,62.13
2018-06-17T03:59:28.071Z,61.67
2018-06-17T04:01:58.709Z,56.27
2018-06-17T04:04:29.645Z,56.00
2018-06-17T04:07:00.363Z,58.80
2018-06-17T04:09:31.481Z,61.50
2018-06-17T04:12:02.262Z,65.60
2018-06-17T04:14:32.675Z,61.73
2018-06-17T04:17:07.769Z,60.37
2018-06-17T04:19:37.788Z,61.93
2018-06-17T04:22:08.759Z,60.07
2018-06-17T04:24:39.550Z,60.17
2018-06-17T04:27:10.018Z,63.17
2018-06-17T04:29:42.745Z,60.20
2018-06-17T04:32:13.956Z,59.83
2018-06-17T04:34:44.172Z,58.97
2018-06-17T04:37:14.373Z,59.90
2018-06-17T04:39:44.750Z,63.57
2018-06-17T04:42:15.186Z,58.20
2018-06-17T04:44:45.319Z,59.67
2018-06-17T04:47:15.596Z,61.90
2018-06-17T04:49:46.586Z,61.90
2018-06-17T04:52:17.362Z,62.70
2018-06-17T04:54:47.594Z,63.30
2018-06-17T04:57:18.147Z,63.83
2018-06-17T04:59:48.257Z,61.10
2018-06-17T05:02:19.119Z,60.80
2018-06-17T05:04:49.301Z,65.00
2018-06-17T05:07:19.622Z,62.17
2018-06-17T05:09:49.689Z,62.83
2018-06-17T05:12:20.837Z,64.70
2018-06-17T05:14:51.202Z,62.00
2018-06-17T05:17:22.630Z,65.27
2018-06-17T05:19:52.824Z,62.27
2018-06-17T05:22:23.129Z,59.30
2018-06-17T05:24:53.403Z,66.13
2018-06-17T05:27:24.232Z,61.13
2018-06-17T05:29:54.753Z,61.77
2018-06-17T05:32:25.419Z,62.13
2018-06-17T05:34:55.644Z,64.57
2018-06-17T05:37:25.946Z,61.37
2018-06-17T05:39:55.995Z,61.37
2018-06-17T05:42:26.318Z,62.40
2018-06-17T05:44:57.159Z,63.87
2018-06-17T05:47:27.354Z,64.90
2018-06-17T05:49:58.366Z,64.00
2018-06-17T05:52:28.610Z,66.57
2018-06-17T05:54:59.222Z,64.90
2018-06-17T05:57:29.504Z,60.67
2018-06-17T05:59:59.613Z,64.70
2018-06-17T06:02:30.279Z,63.03
2018-06-17T06:05:00.365Z,63.47
2018-06-17T06:07:31.465Z,63.30
2018-06-17T06:10:02.012Z,61.17
2018-06-17T06:12:32.970Z,64.80
2018-06-17T06:15:03.099Z,64.13
2018-06-17T06:17:33.838Z,61.53
2018-06-17T06:20:03.874Z,62.60
2018-06-17T06:22:34.182Z,66.03
2018-06-17T06:25:04.370Z,64.70
2018-06-17T06:27:35.286Z,65.43
2018-06-17T06:30:06.224Z,63.57
2018-06-17T06:32:36.850Z,63.40
2018-06-17T06:35:07.278Z,63.83
2018-06-17T06:37:39.658Z,65.10
2018-06-17T06:40:10.290Z,65.93
2018-06-17T06:42:41.482Z,63.80
2018-06-17T06:45:12.219Z,61.60
2018-06-17T06:47:42.505Z,61.23
2018-06-17T06:50:12.915Z,66.67
2018-06-17T06:52:43.336Z,64.23
2018-06-17T06:55:13.513Z,63.80
2018-06-17T06:57:44.149Z,62.10
2018-06-17T07:00:15.262Z,62.17
2018-06-17T07:03:02.893Z,60.97
2018-06-17T07:05:49.600Z,63.03
2018-06-17T07:08:36.048Z,63.40
2018-06-17T07:11:07.325Z,63.20
2018-06-17T07:13:37.979Z,65.47
2018-06-17T07:16:25.135Z,61.53
2018-06-17T07:18:55.969Z,64.57
2018-06-17T07:21:27.040Z,63.90
2018-06-17T07:23:58.988Z,62.70
2018-06-17T07:26:59.502Z,63.17
2018-06-17T07:29:41.857Z,62.70
2018-06-17T07:32:12.033Z,59.77
2018-06-17T07:34:43.311Z,62.27
2018-06-17T07:37:13.771Z,62.00
2018-06-17T07:40:51.241Z,64.83
2018-06-17T07:43:22.146Z,64.30
2018-06-17T07:45:52.749Z,65.00
2018-06-17T07:49:46.234Z,65.27
2018-06-17T07:52:34.555Z,64.87
2018-06-17T07:55:07.813Z,63.87
2018-06-17T07:57:37.908Z,66.13
2018-06-17T08:00:08.800Z,63.57
2018-06-17T08:02:39.247Z,68.67
2018-06-17T08:05:12.369Z,67.67
2018-06-17T08:07:42.420Z,65.13
2018-06-17T08:10:23.900Z,71.43
2018-06-17T08:12:54.500Z,68.23
2018-06-17T08:15:25.419Z,65.90
2018-06-17T08:18:03.898Z,66.30
2018-06-17T08:20:34.567Z,64.03
2018-06-17T08:23:04.848Z,66.03
2018-06-17T08:25:39.129Z,65.07
2018-06-17T08:28:09.986Z,65.47
2018-06-17T08:30:43.930Z,65.80
2018-06-17T08:35:50.286Z,68.80
2018-06-17T08:38:20.593Z,70.50
2018-06-17T08:40:57.022Z,68.00
2018-06-17T08:43:27.017Z,68.80
2018-06-17T08:46:00.938Z,69.60
2018-06-17T08:48:31.413Z,69.20
2018-06-17T08:51:01.529Z,68.50
2018-06-17T08:53:32.562Z,69.27
2018-06-17T08:56:03.021Z,66.97
2018-06-17T08:58:33.956Z,70.57
2018-06-17T09:01:04.276Z,73.23
2018-06-17T09:03:34.374Z,69.13
2018-06-17T09:06:04.955Z,70.20
2018-06-17T09:08:35.081Z,70.37
2018-06-17T09:11:05.562Z,70.10
2018-06-17T09:13:35.792Z,74.67
2018-06-17T09:16:06.157Z,70.27
2018-06-17T09:18:36.650Z,68.87
2018-06-17T09:21:06.890Z,72.27
2018-06-17T09:23:37.481Z,69.43
2018-06-17T09:26:07.783Z,69.97
2018-06-17T09:28:37.977Z,70.20
2018-06-17T09:31:08.253Z,70.20
2018-06-17T09:33:38.470Z,70.13
2018-06-17T09:36:08.535Z,66.97
2018-06-17T09:38:38.779Z,70.43
2018-06-17T09:41:09.159Z,70.57
2018-06-17T09:43:39.296Z,71.67
2018-06-17T09:46:09.534Z,71.00
2018-06-17T09:48:39.936Z,69.67
2018-06-17T09:51:10.233Z,69.73
2018-06-17T09:53:40.490Z,70.33
2018-06-17T09:56:10.958Z,67.97
2018-06-17T09:58:41.243Z,67.00
2018-06-17T10:01:11.711Z,70.47
2018-06-17T10:03:42.220Z,71.70
2018-06-17T10:06:12.496Z,69.40
2018-06-17T10:08:42.650Z,68.87
2018-06-17T10:11:13.627Z,72.20
2018-06-17T10:13:44.666Z,71.23
2018-06-17T10:16:19.835Z,69.77
2018-06-17T10:18:51.105Z,69.03
2018-06-17T10:21:22.734Z,70.67
2018-06-17T10:23:53.900Z,68.67
2018-06-17T10:26:24.127Z,72.90
2018-06-17T10:28:54.651Z,68.20
2018-06-17T10:31:25.433Z,71.90
2018-06-17T10:33:55.654Z,67.37
2018-06-17T10:36:26.050Z,69.40
2018-06-17T10:38:56.522Z,69.93
2018-06-17T10:41:26.715Z,66.10
2018-06-17T10:43:56.806Z,67.63
2018-06-17T10:46:46.176Z,72.30
2018-06-17T10:49:21.946Z,72.57
2018-06-17T10:52:00.865Z,68.07
2018-06-17T10:54:36.242Z,66.53
2018-06-17T10:57:07.544Z,69.63
2018-06-17T10:59:43.707Z,69.13
2018-06-17T11:02:14.868Z,68.33
2018-06-17T11:04:45.133Z,68.00
2018-06-17T11:07:15.402Z,66.23
2018-06-17T11:09:46.285Z,68.07
2018-06-17T11:12:16.792Z,69.00
2018-06-17T11:14:47.096Z,67.10
2018-06-17T11:17:17.553Z,68.97
2018-06-17T11:19:48.114Z,66.57
2018-06-17T11:22:19.474Z,69.27
2018-06-17T11:24:49.766Z,67.40
2018-06-17T11:27:20.652Z,71.77
2018-06-17T11:29:51.455Z,66.33
2018-06-17T11:32:22.525Z,69.50
2018-06-17T11:34:53.765Z,72.13
2018-06-17T11:37:24.414Z,72.60
2018-06-17T11:39:54.532Z,67.60
2018-06-17T11:42:25.597Z,74.20
2018-06-17T11:44:56.401Z,70.13
2018-06-17T11:47:26.722Z,70.07
2018-06-17T11:49:56.988Z,70.17
2018-06-17T11:52:27.400Z,71.07
2018-06-17T11:54:57.803Z,70.73
2018-06-17T11:57:28.146Z,69.63
2018-06-17T11:59:59.434Z,71.33
2018-06-17T12:02:31.403Z,69.97
2018-06-17T12:05:02.422Z,71.97
2018-06-17T12:07:32.324Z,71.07
2018-06-17T12:10:02.557Z,72.87
2018-06-17T12:12:33.188Z,69.73
2018-06-17T12:15:03.589Z,67.53
2018-06-17T12:17:33.853Z,71.60
2018-06-17T12:20:04.416Z,71.00
2018-06-17T12:22:34.897Z,68.77
2018-06-17T12:25:05.475Z,70.27
2018-06-17T12:27:35.852Z,71.23
2018-06-17T12:30:06.521Z,70.03
2018-06-17T12:32:36.734Z,73.10
2018-06-17T12:35:06.899Z,70.80
2018-06-17T12:37:37.092Z,72.40
2018-06-17T12:40:07.865Z,69.90
2018-06-17T12:42:37.821Z,70.43
2018-06-17T12:45:08.230Z,70.03
2018-06-17T12:47:38.745Z,70.27
2018-06-17T12:50:09.257Z,72.50
2018-06-17T12:52:39.756Z,70.27
2018-06-17T12:55:10.567Z,69.37
2018-06-17T12:57:41.115Z,72.77
2018-06-17T13:00:12.953Z,72.60
2018-06-17T13:02:43.655Z,67.67
2018-06-17T13:05:14.556Z,68.33
2018-06-17T13:07:44.990Z,71.47
2018-06-17T13:10:16.975Z,73.67
2018-06-17T13:12:47.521Z,72.67
2018-06-17T13:15:17.909Z,72.63
2018-06-17T13:17:49.250Z,72.90
2018-06-17T13:20:19.937Z,70.77
2018-06-17T13:22:50.520Z,68.70
2018-06-17T13:25:21.878Z,67.93
2018-06-17T13:27:52.254Z,70.13
2018-06-17T13:30:23.429Z,72.03
2018-06-17T13:32:54.046Z,69.40
2018-06-17T13:35:24.617Z,69.40
2018-06-17T13:37:54.714Z,71.37
2018-06-17T13:40:25.210Z,70.27
2018-06-17T13:42:55.347Z,74.27
2018-06-17T13:45:25.921Z,71.23
2018-06-17T13:47:56.299Z,72.03
2018-06-17T13:50:26.824Z,77.13
2018-06-17T13:52:58.026Z,77.13
2018-06-17T13:55:28.630Z,79.33
2018-06-17T13:57:58.949Z,71.17
2018-06-17T14:00:29.227Z,74.57
2018-06-17T14:02:59.571Z,73.53
2018-06-17T14:05:29.825Z,74.30
2018-06-17T14:08:00.128Z,75.90
2018-06-17T14:10:30.496Z,71.70
2018-06-17T14:13:00.567Z,71.90
2018-06-17T14:15:30.965Z,73.33
2018-06-17T14:18:01.509Z,71.90
2018-06-17T14:20:32.857Z,72.30
2018-06-17T14:23:02.984Z,76.53
2018-06-17T14:25:33.641Z,68.50
2018-06-17T14:28:03.913Z,73.87
2018-06-17T14:30:34.095Z,69.37
2018-06-17T14:33:04.924Z,72.10
2018-06-17T14:35:35.055Z,71.73
2018-06-17T14:38:07.117Z,73.00
2018-06-17T14:40:42.556Z,71.93
2018-06-17T14:43:17.688Z,71.97
2018-06-17T14:45:52.915Z,70.40
2018-06-17T14:48:28.148Z,73.63
2018-06-17T14:51:03.433Z,72.93
2018-06-17T14:53:33.698Z,71.33
2018-06-17T14:56:03.822Z,70.73
2018-06-17T14:58:34.541Z,71.67
2018-06-17T15:01:05.606Z,105.47
2018-06-17T15:03:36.276Z,70.53
2018-06-17T15:06:06.782Z,71.57
2018-06-17T15:08:37.126Z,68.87
2018-06-17T15:11:07.970Z,71.57
2018-06-17T15:13:38.146Z,69.97
2018-06-17T15:16:08.129Z,72.53
2018-06-17T15:18:39.020Z,71.33
2018-06-17T15:21:09.208Z,70.43
2018-06-17T15:23:39.661Z,73.23
2018-06-17T15:26:10.190Z,68.97
2018-06-17T15:28:41.789Z,69.03
2018-06-17T15:31:17.041Z,70.27
2018-06-17T15:34:01.542Z,68.83
2018-06-17T15:36:36.832Z,72.13
2018-06-17T15:40:12.102Z,69.57
2018-06-17T15:42:42.423Z,68.53
2018-06-17T15:45:12.600Z,70.33
2018-06-17T15:47:42.918Z,70.53
2018-06-17T15:50:13.321Z,96.07
2018-06-17T15:52:50.412Z,93.37
2018-06-17T15:55:20.784Z,84.60
2018-06-17T15:57:50.942Z,88.80
2018-06-17T16:00:21.012Z,82.63
2018-06-17T16:02:51.605Z,77.90
2018-06-17T16:05:22.391Z,70.63
2018-06-17T16:07:53.588Z,69.70
2018-06-17T16:10:23.956Z,74.17
2018-06-17T16:12:59.617Z,66.87
2018-06-17T16:15:35.175Z,67.57
2018-06-17T16:18:10.556Z,71.33
2018-06-17T16:20:45.786Z,70.87
2018-06-17T16:23:16.216Z,67.30
2018-06-17T16:25:46.230Z,72.10
2018-06-17T16:28:16.463Z,70.50
2018-06-17T16:30:46.682Z,72.10
2018-06-17T16:33:17.337Z,70.33
2018-06-17T16:35:48.134Z,67.37
2018-06-17T16:38:20.457Z,68.23
2018-06-17T16:40:50.886Z,69.07
2018-06-17T16:43:23.224Z,68.20
2018-06-17T16:45:53.414Z,68.43
2018-06-17T16:48:24.452Z,68.93
2018-06-17T16:51:00.162Z,70.40
2018-06-17T16:53:38.603Z,67.93
2018-06-17T16:56:16.577Z,66.93
2018-06-17T16:58:51.816Z,70.67
2018-06-17T17:01:22.136Z,69.50
2018-06-17T17:03:52.434Z,70.67
2018-06-17T17:06:22.856Z,71.70
2018-06-17T17:08:56.698Z,69.33
2018-06-17T17:11:26.866Z,70.47
2018-06-17T17:13:58.403Z,69.77
2018-06-17T17:16:28.941Z,69.23
2018-06-17T17:18:59.142Z,71.00
2018-06-17T17:21:29.389Z,70.73
2018-06-17T17:23:59.629Z,69.73
2018-06-17T17:26:30.024Z,69.67
2018-06-17T17:29:00.636Z,69.40
2018-06-17T17:31:35.965Z,70.47
2018-06-17T17:34:11.543Z,70.80
2018-06-17T17:36:46.934Z,67.77
2018-06-17T17:39:22.409Z,67.57
2018-06-17T17:41:52.857Z,68.10
2018-06-17T17:44:23.520Z,68.00
2018-06-17T17:47:10.164Z,69.87
2018-06-17T17:49:49.957Z,68.60
2018-06-17T17:52:37.968Z,68.93
2018-06-17T17:55:26.679Z,67.90
2018-06-17T17:58:30.962Z,68.23
2018-06-17T18:01:09.011Z,70.73
2018-06-17T18:03:42.228Z,65.90
2018-06-17T18:06:19.246Z,68.83
2018-06-17T18:08:49.645Z,74.27
2018-06-17T18:11:20.825Z,68.43
2018-06-17T18:13:55.392Z,67.00
2018-06-17T18:16:31.423Z,68.23
2018-06-17T18:19:04.090Z,69.27
2018-06-17T18:21:39.497Z,68.97
2018-06-17T18:24:12.040Z,67.60
2018-06-17T18:29:02.242Z,68.10
2018-06-17T18:31:36.882Z,69.67
2018-06-17T18:34:12.164Z,68.60
2018-06-17T18:36:43.254Z,69.33
2018-06-17T18:39:14.785Z,67.13
2018-06-17T18:41:45.576Z,67.37
2018-06-17T18:44:16.872Z,68.03
2018-06-17T18:46:49.734Z,67.97
2018-06-17T18:49:20.143Z,67.30
2018-06-17T18:51:50.550Z,67.87
2018-06-17T18:54:20.404Z,67.83
2018-06-17T18:56:51.926Z,68.27
2018-06-17T18:59:22.102Z,71.43
2018-06-17T19:01:52.507Z,68.90
2018-06-17T19:04:22.997Z,67.53
2018-06-17T19:06:54.282Z,68.90
2018-06-17T19:09:31.446Z,68.10
2018-06-17T19:12:07.407Z,69.70
2018-06-17T19:14:43.733Z,69.60
2018-06-17T19:17:19.265Z,67.07
2018-06-17T19:19:50.085Z,67.37
2018-06-17T19:22:21.056Z,68.27
2018-06-17T19:24:52.093Z,68.10
2018-06-17T19:27:22.570Z,67.03
2018-06-17T19:29:52.850Z,69.50
2018-06-17T19:32:23.301Z,65.77
2018-06-17T19:34:53.389Z,67.27
2018-06-17T19:37:23.919Z,66.77
2018-06-17T19:39:54.241Z,68.07
2018-06-17T19:42:24.431Z,68.67
2018-06-17T19:44:54.620Z,66.30
2018-06-17T19:47:24.970Z,68.83
2018-06-17T19:50:00.053Z,66.43
2018-06-17T19:52:37.484Z,68.20
2018-06-17T19:55:13.234Z,67.27
2018-06-17T19:57:48.612Z,67.93
2018-06-17T20:00:24.143Z,66.93
2018-06-17T20:02:54.383Z,68.13
2018-06-17T20:05:24.570Z,66.47
2018-06-17T20:07:55.013Z,68.10
2018-06-17T20:10:25.169Z,67.73
2018-06-17T20:12:55.708Z,65.90
2018-06-17T20:15:26.198Z,67.07
2018-06-17T20:17:56.407Z,66.70
2018-06-17T20:20:26.821Z,66.00
2018-06-17T20:22:57.098Z,67.17
2018-06-17T20:25:28.833Z,67.20
2018-06-17T20:27:59.974Z,66.07
2018-06-17T20:30:30.464Z,65.30
2018-06-17T20:33:06.048Z,66.17
2018-06-17T20:35:41.257Z,66.77
2018-06-17T20:38:16.498Z,66.70
2018-06-17T20:40:51.832Z,66.87
2018-06-17T20:43:27.683Z,63.73
2018-06-17T20:45:58.929Z,66.37
2018-06-17T20:48:30.153Z,66.37
2018-06-17T20:51:00.820Z,64.00
2018-06-17T20:53:38.146Z,65.63
2018-06-17T20:56:09.776Z,66.73
2018-06-17T20:58:41.099Z,65.97
2018-06-17T21:01:11.858Z,65.83
2018-06-17T21:03:42.285Z,64.97
2018-06-17T21:06:12.446Z,67.13
2018-06-17T21:08:43.537Z,65.73
2018-06-17T21:11:14.408Z,65.20
2018-06-17T21:13:45.048Z,67.40
2018-06-17T21:16:16.313Z,66.73
2018-06-17T21:18:52.610Z,66.33
2018-06-17T21:21:28.049Z,65.93
2018-06-17T21:24:03.105Z,66.20
2018-06-17T21:26:38.432Z,66.00
2018-06-17T21:29:08.703Z,66.70
2018-06-17T21:31:38.995Z,68.27
2018-06-17T21:34:09.545Z,66.57
2018-06-17T21:36:39.578Z,63.33
2018-06-17T21:39:11.014Z,67.17
2018-06-17T21:41:41.303Z,65.37
2018-06-17T21:44:12.133Z,66.33
2018-06-17T21:46:42.534Z,65.63
2018-06-17T21:49:12.891Z,66.33
2018-06-17T21:51:43.481Z,65.13
2018-06-17T21:54:13.715Z,64.97
2018-06-17T21:56:43.878Z,65.73
2018-06-17T21:59:14.158Z,64.83
2018-06-17T22:01:44.412Z,65.37
2018-06-17T22:04:19.717Z,63.83
2018-06-17T22:06:50.019Z,64.83
2018-06-17T22:09:25.587Z,66.00
2018-06-17T22:12:00.819Z,64.00
2018-06-17T22:14:36.306Z,65.10
2018-06-17T22:17:11.488Z,68.27
2018-06-17T22:19:41.815Z,66.97
2018-06-17T22:22:11.895Z,66.40
2018-06-17T22:24:42.292Z,64.70
2018-06-17T22:27:12.414Z,64.23
2018-06-17T22:29:42.846Z,65.70
2018-06-17T22:32:13.672Z,64.80
2018-06-17T22:34:44.229Z,65.37
2018-06-17T22:37:14.523Z,65.53
2018-06-17T22:39:45.249Z,66.67
2018-06-17T22:42:16.047Z,66.30
2018-06-17T22:44:46.418Z,65.87
2018-06-17T22:47:20.799Z,65.57
2018-06-17T22:49:51.949Z,65.27
2018-06-17T22:52:23.155Z,64.67
2018-06-17T22:54:54.762Z,64.93
2018-06-17T22:57:29.854Z,67.13
2018-06-17T23:00:05.046Z,66.07
2018-06-17T23:02:40.431Z,66.13
2018-06-17T23:05:15.969Z,66.23
2018-06-17T23:07:51.380Z,63.87
2018-06-17T23:10:22.291Z,64.67
2018-06-17T23:12:52.747Z,63.90
2018-06-17T23:15:24.438Z,63.07
2018-06-17T23:17:54.671Z,65.23
2018-06-17T23:20:24.948Z,64.53
2018-06-17T23:22:54.958Z,65.00
2018-06-17T23:25:25.473Z,65.60
2018-06-17T23:27:56.909Z,64.33
2018-06-17T23:30:28.128Z,64.10
2018-06-17T23:32:59.241Z,64.43
2018-06-17T23:35:29.648Z,65.27
2018-06-17T23:37:59.761Z,65.90
2018-06-17T23:40:33.192Z,64.13
2018-06-17T23:43:03.399Z,64.63
2018-06-17T23:45:33.598Z,65.00
2018-06-17T23:48:08.775Z,65.93
2018-06-17T23:50:43.913Z,66.57
2018-06-17T23:53:19.188Z,62.90
2018-06-17T23:55:54.386Z,64.00
2018-06-17T23:58:24.634Z,63.67
